sensor_id;sensor_type;location;lat;lon;timestamp;P1;durP1;ratioP1;P2;durP2;ratioP2
13085;SDS011;6609;49.882;8.664;2023-07-29T00:02:13;4.97;;;2.40;;
13085;SDS011;6609;49.882;8.664;2023-07-29T00:04:41;5.37;;;2.63;;
13085;SDS011;6609;49.882;8.664;2023-07-29T00:07:08;4.80;;;2.30;;
13085;SDS011;6609;49.882;8.664;2023-07-29T00:09:35;5.87;;;2.77;;
13085;SDS011;6609;49.882;8.664;2023-07-29T00:12:03;8.00;;;2.93;;
13085;SDS011;6609;49.882;8.664;2023-07-29T00:14:30;8.87;;;2.40;;
13085;SDS011;6609;49.882;8.664;2023-07-29T00:16:57;4.13;;;2.50;;
13085;SDS011;6609;49.882;8.664;2023-07-29T00:19:24;6.10;;;2.57;;
13085;SDS011;6609;49.882;8.664;2023-07-29T00:21:52;7.10;;;2.73;;
13085;SDS011;6609;49.882;8.664;2023-07-29T00:24:18;6.90;;;2.33;;
13085;SDS011;6609;49.882;8.664;2023-07-29T00:26:45;3.97;;;2.20;;
13085;SDS011;6609;49.882;8.664;2023-07-29T00:29:13;6.80;;;2.63;;
13085;SDS011;6609;49.882;8.664;2023-07-29T00:31:40;5.40;;;2.70;;
13085;SDS011;6609;49.882;8.664;2023-07-29T00:34:06;5.57;;;2.07;;
13085;SDS011;6609;49.882;8.664;2023-07-29T00:36:34;3.70;;;2.23;;
13085;SDS011;6609;49.882;8.664;2023-07-29T00:39:02;3.17;;;1.83;;
13085;SDS011;6609;49.882;8.664;2023-07-29T00:41:29;3.07;;;1.87;;
13085;SDS011;6609;49.882;8.664;2023-07-29T00:43:56;4.50;;;2.23;;
13085;SDS011;6609;49.882;8.664;2023-07-29T00:46:23;4.97;;;2.23;;
13085;SDS011;6609;49.882;8.664;2023-07-29T00:48:51;4.23;;;2.20;;
13085;SDS011;6609;49.882;8.664;2023-07-29T00:51:18;8.27;;;2.27;;
13085;SDS011;6609;49.882;8.664;2023-07-29T00:53:45;4.33;;;2.50;;
13085;SDS011;6609;49.882;8.664;2023-07-29T00:56:13;3.90;;;1.97;;
13085;SDS011;6609;49.882;8.664;2023-07-29T00:58:40;7.13;;;3.40;;
13085;SDS011;6609;49.882;8.664;2023-07-29T01:01:07;3.57;;;2.10;;
13085;SDS011;6609;49.882;8.664;2023-07-29T01:03:34;5.50;;;2.47;;
13085;SDS011;6609;49.882;8.664;2023-07-29T01:06:09;4.27;;;2.33;;
13085;SDS011;6609;49.882;8.664;2023-07-29T01:08:44;5.07;;;2.20;;
13085;SDS011;6609;49.882;8.664;2023-07-29T01:11:21;5.60;;;2.10;;
13085;SDS011;6609;49.882;8.664;2023-07-29T01:13:53;5.03;;;2.27;;
13085;SDS011;6609;49.882;8.664;2023-07-29T01:16:23;6.03;;;2.10;;
13085;SDS011;6609;49.882;8.664;2023-07-29T01:18:52;3.13;;;2.17;;
13085;SDS011;6609;49.882;8.664;2023-07-29T01:21:21;5.03;;;2.07;;
13085;SDS011;6609;49.882;8.664;2023-07-29T01:23:53;6.40;;;2.13;;
13085;SDS011;6609;49.882;8.664;2023-07-29T01:26:20;3.20;;;1.83;;
13085;SDS011;6609;49.882;8.664;2023-07-29T01:28:46;4.73;;;2.07;;
13085;SDS011;6609;49.882;8.664;2023-07-29T01:31:15;5.33;;;1.90;;
13085;SDS011;6609;49.882;8.664;2023-07-29T01:33:48;4.33;;;1.93;;
13085;SDS011;6609;49.882;8.664;2023-07-29T01:36:20;2.53;;;1.60;;
13085;SDS011;6609;49.882;8.664;2023-07-29T01:38:49;4.50;;;1.60;;
13085;SDS011;6609;49.882;8.664;2023-07-29T01:41:19;3.53;;;1.83;;
13085;SDS011;6609;49.882;8.664;2023-07-29T01:43:46;4.17;;;1.93;;
13085;SDS011;6609;49.882;8.664;2023-07-29T01:46:14;5.57;;;2.23;;
13085;SDS011;6609;49.882;8.664;2023-07-29T01:48:41;4.00;;;2.10;;
13085;SDS011;6609;49.882;8.664;2023-07-29T01:51:10;3.03;;;1.90;;
13085;SDS011;6609;49.882;8.664;2023-07-29T01:53:37;4.87;;;2.23;;
13085;SDS011;6609;49.882;8.664;2023-07-29T01:56:04;3.03;;;1.70;;
13085;SDS011;6609;49.882;8.664;2023-07-29T01:58:33;3.30;;;1.93;;
13085;SDS011;6609;49.882;8.664;2023-07-29T02:00:59;2.40;;;1.50;;
13085;SDS011;6609;49.882;8.664;2023-07-29T02:03:26;3.57;;;1.97;;
13085;SDS011;6609;49.882;8.664;2023-07-29T02:05:53;2.97;;;1.77;;
13085;SDS011;6609;49.882;8.664;2023-07-29T02:08:20;5.13;;;1.63;;
13085;SDS011;6609;49.882;8.664;2023-07-29T02:10:47;3.37;;;1.87;;
13085;SDS011;6609;49.882;8.664;2023-07-29T02:13:15;5.50;;;2.17;;
13085;SDS011;6609;49.882;8.664;2023-07-29T02:15:43;4.03;;;2.10;;
13085;SDS011;6609;49.882;8.664;2023-07-29T02:18:10;3.67;;;1.77;;
13085;SDS011;6609;49.882;8.664;2023-07-29T02:20:37;4.43;;;1.63;;
13085;SDS011;6609;49.882;8.664;2023-07-29T02:23:04;3.47;;;1.77;;
13085;SDS011;6609;49.882;8.664;2023-07-29T02:25:31;5.23;;;2.07;;
13085;SDS011;6609;49.882;8.664;2023-07-29T02:27:58;2.93;;;1.73;;
13085;SDS011;6609;49.882;8.664;2023-07-29T02:30:24;4.17;;;2.00;;
13085;SDS011;6609;49.882;8.664;2023-07-29T02:32:53;3.37;;;1.90;;
13085;SDS011;6609;49.882;8.664;2023-07-29T02:35:20;5.30;;;2.33;;
13085;SDS011;6609;49.882;8.664;2023-07-29T02:37:47;3.60;;;1.97;;
13085;SDS011;6609;49.882;8.664;2023-07-29T02:40:14;3.33;;;1.80;;
13085;SDS011;6609;49.882;8.664;2023-07-29T02:42:41;5.23;;;2.27;;
13085;SDS011;6609;49.882;8.664;2023-07-29T02:45:08;5.27;;;2.33;;
13085;SDS011;6609;49.882;8.664;2023-07-29T02:47:36;3.93;;;2.20;;
13085;SDS011;6609;49.882;8.664;2023-07-29T02:50:05;5.43;;;2.20;;
13085;SDS011;6609;49.882;8.664;2023-07-29T02:52:32;6.13;;;2.07;;
13085;SDS011;6609;49.882;8.664;2023-07-29T02:54:59;3.13;;;1.80;;
13085;SDS011;6609;49.882;8.664;2023-07-29T02:57:26;5.23;;;2.27;;
13085;SDS011;6609;49.882;8.664;2023-07-29T02:59:53;3.73;;;1.77;;
13085;SDS011;6609;49.882;8.664;2023-07-29T03:02:20;3.80;;;2.03;;
13085;SDS011;6609;49.882;8.664;2023-07-29T03:04:47;3.27;;;1.80;;
13085;SDS011;6609;49.882;8.664;2023-07-29T03:07:15;6.17;;;3.10;;
13085;SDS011;6609;49.882;8.664;2023-07-29T03:09:43;4.20;;;2.20;;
13085;SDS011;6609;49.882;8.664;2023-07-29T03:12:10;4.03;;;2.27;;
13085;SDS011;6609;49.882;8.664;2023-07-29T03:14:37;5.40;;;2.20;;
13085;SDS011;6609;49.882;8.664;2023-07-29T03:17:04;4.33;;;1.97;;
13085;SDS011;6609;49.882;8.664;2023-07-29T03:19:31;4.70;;;2.70;;
13085;SDS011;6609;49.882;8.664;2023-07-29T03:21:58;3.53;;;1.80;;
13085;SDS011;6609;49.882;8.664;2023-07-29T03:24:26;4.80;;;2.13;;
13085;SDS011;6609;49.882;8.664;2023-07-29T03:26:54;5.47;;;2.20;;
13085;SDS011;6609;49.882;8.664;2023-07-29T03:29:21;7.57;;;2.60;;
13085;SDS011;6609;49.882;8.664;2023-07-29T03:31:48;7.27;;;2.33;;
13085;SDS011;6609;49.882;8.664;2023-07-29T03:34:15;6.57;;;2.57;;
13085;SDS011;6609;49.882;8.664;2023-07-29T03:36:42;5.23;;;2.50;;
13085;SDS011;6609;49.882;8.664;2023-07-29T03:39:10;6.80;;;2.20;;
13085;SDS011;6609;49.882;8.664;2023-07-29T03:41:39;5.63;;;2.27;;
13085;SDS011;6609;49.882;8.664;2023-07-29T03:44:06;3.17;;;1.83;;
13085;SDS011;6609;49.882;8.664;2023-07-29T03:46:33;6.43;;;2.23;;
13085;SDS011;6609;49.882;8.664;2023-07-29T03:49:00;3.30;;;1.93;;
13085;SDS011;6609;49.882;8.664;2023-07-29T03:51:28;4.10;;;1.57;;
13085;SDS011;6609;49.882;8.664;2023-07-29T03:53:55;4.40;;;1.83;;
13085;SDS011;6609;49.882;8.664;2023-07-29T03:56:21;5.20;;;2.60;;
13085;SDS011;6609;49.882;8.664;2023-07-29T03:58:49;6.10;;;2.33;;
13085;SDS011;6609;49.882;8.664;2023-07-29T04:01:16;6.80;;;2.93;;
13085;SDS011;6609;49.882;8.664;2023-07-29T04:03:44;8.57;;;3.57;;
13085;SDS011;6609;49.882;8.664;2023-07-29T04:06:11;2.50;;;1.70;;
13085;SDS011;6609;49.882;8.664;2023-07-29T04:08:38;4.57;;;2.37;;
13085;SDS011;6609;49.882;8.664;2023-07-29T04:11:06;4.57;;;2.53;;
13085;SDS011;6609;49.882;8.664;2023-07-29T04:13:33;3.87;;;1.97;;
13085;SDS011;6609;49.882;8.664;2023-07-29T04:16:03;2.83;;;1.70;;
13085;SDS011;6609;49.882;8.664;2023-07-29T04:18:30;2.90;;;1.83;;
13085;SDS011;6609;49.882;8.664;2023-07-29T04:20:58;4.07;;;2.20;;
13085;SDS011;6609;49.882;8.664;2023-07-29T04:23:24;3.50;;;1.87;;
13085;SDS011;6609;49.882;8.664;2023-07-29T04:25:51;3.13;;;2.20;;
13085;SDS011;6609;49.882;8.664;2023-07-29T04:28:18;6.50;;;2.33;;
13085;SDS011;6609;49.882;8.664;2023-07-29T04:30:45;5.07;;;2.73;;
13085;SDS011;6609;49.882;8.664;2023-07-29T04:33:14;5.93;;;2.67;;
13085;SDS011;6609;49.882;8.664;2023-07-29T04:35:41;5.53;;;2.80;;
13085;SDS011;6609;49.882;8.664;2023-07-29T04:38:07;2.87;;;1.70;;
13085;SDS011;6609;49.882;8.664;2023-07-29T04:40:34;4.33;;;2.53;;
13085;SDS011;6609;49.882;8.664;2023-07-29T04:43:01;5.93;;;2.40;;
13085;SDS011;6609;49.882;8.664;2023-07-29T04:45:28;3.87;;;2.50;;
13085;SDS011;6609;49.882;8.664;2023-07-29T04:47:55;4.83;;;2.20;;
13085;SDS011;6609;49.882;8.664;2023-07-29T04:50:24;3.53;;;2.37;;
13085;SDS011;6609;49.882;8.664;2023-07-29T04:52:51;5.80;;;2.53;;
13085;SDS011;6609;49.882;8.664;2023-07-29T04:55:18;4.27;;;2.20;;
13085;SDS011;6609;49.882;8.664;2023-07-29T04:57:45;4.60;;;2.10;;
13085;SDS011;6609;49.882;8.664;2023-07-29T05:00:12;4.73;;;2.07;;
13085;SDS011;6609;49.882;8.664;2023-07-29T05:02:40;4.90;;;2.53;;
13085;SDS011;6609;49.882;8.664;2023-07-29T05:05:07;3.70;;;2.30;;
13085;SDS011;6609;49.882;8.664;2023-07-29T05:07:36;4.83;;;2.63;;
13085;SDS011;6609;49.882;8.664;2023-07-29T05:10:03;5.93;;;2.73;;
13085;SDS011;6609;49.882;8.664;2023-07-29T05:12:31;6.33;;;2.50;;
13085;SDS011;6609;49.882;8.664;2023-07-29T05:14:58;4.27;;;2.43;;
13085;SDS011;6609;49.882;8.664;2023-07-29T05:17:25;3.50;;;2.30;;
13085;SDS011;6609;49.882;8.664;2023-07-29T05:19:52;4.27;;;2.00;;
13085;SDS011;6609;49.882;8.664;2023-07-29T05:22:19;4.27;;;2.17;;
13085;SDS011;6609;49.882;8.664;2023-07-29T05:24:47;4.37;;;2.40;;
13085;SDS011;6609;49.882;8.664;2023-07-29T05:27:14;4.90;;;1.80;;
13085;SDS011;6609;49.882;8.664;2023-07-29T05:29:41;4.87;;;2.27;;
13085;SDS011;6609;49.882;8.664;2023-07-29T05:32:08;4.03;;;2.40;;
13085;SDS011;6609;49.882;8.664;2023-07-29T05:34:35;8.27;;;2.57;;
13085;SDS011;6609;49.882;8.664;2023-07-29T05:37:01;3.63;;;1.90;;
13085;SDS011;6609;49.882;8.664;2023-07-29T05:39:29;4.20;;;2.27;;
13085;SDS011;6609;49.882;8.664;2023-07-29T05:41:58;7.00;;;2.23;;
13085;SDS011;6609;49.882;8.664;2023-07-29T05:44:27;3.90;;;2.37;;
13085;SDS011;6609;49.882;8.664;2023-07-29T05:46:55;4.57;;;2.67;;
13085;SDS011;6609;49.882;8.664;2023-07-29T05:49:22;4.17;;;2.33;;
13085;SDS011;6609;49.882;8.664;2023-07-29T05:51:49;4.60;;;2.23;;
13085;SDS011;6609;49.882;8.664;2023-07-29T05:54:18;3.63;;;2.03;;
13085;SDS011;6609;49.882;8.664;2023-07-29T05:56:45;6.90;;;3.10;;
13085;SDS011;6609;49.882;8.664;2023-07-29T05:59:13;6.60;;;2.57;;
13085;SDS011;6609;49.882;8.664;2023-07-29T06:01:40;6.20;;;2.57;;
13085;SDS011;6609;49.882;8.664;2023-07-29T06:04:06;5.33;;;2.20;;
13085;SDS011;6609;49.882;8.664;2023-07-29T06:06:33;4.73;;;2.37;;
13085;SDS011;6609;49.882;8.664;2023-07-29T06:09:00;6.17;;;2.50;;
13085;SDS011;6609;49.882;8.664;2023-07-29T06:11:27;4.93;;;2.40;;
13085;SDS011;6609;49.882;8.664;2023-07-29T06:13:54;5.67;;;3.03;;
13085;SDS011;6609;49.882;8.664;2023-07-29T06:16:22;5.20;;;2.33;;
13085;SDS011;6609;49.882;8.664;2023-07-29T06:18:49;3.63;;;2.13;;
13085;SDS011;6609;49.882;8.664;2023-07-29T06:21:18;5.97;;;2.23;;
13085;SDS011;6609;49.882;8.664;2023-07-29T06:23:45;4.63;;;2.67;;
13085;SDS011;6609;49.882;8.664;2023-07-29T06:26:12;2.77;;;2.23;;
13085;SDS011;6609;49.882;8.664;2023-07-29T06:28:39;4.33;;;2.57;;
13085;SDS011;6609;49.882;8.664;2023-07-29T06:31:06;2.70;;;1.90;;
13085;SDS011;6609;49.882;8.664;2023-07-29T06:33:34;4.70;;;2.47;;
13085;SDS011;6609;49.882;8.664;2023-07-29T06:36:01;5.10;;;2.40;;
13085;SDS011;6609;49.882;8.664;2023-07-29T06:38:28;4.60;;;2.57;;
13085;SDS011;6609;49.882;8.664;2023-07-29T06:40:55;3.70;;;2.23;;
13085;SDS011;6609;49.882;8.664;2023-07-29T06:43:22;3.30;;;1.93;;
13085;SDS011;6609;49.882;8.664;2023-07-29T06:45:49;7.37;;;2.57;;
13085;SDS011;6609;49.882;8.664;2023-07-29T06:48:16;6.17;;;3.07;;
13085;SDS011;6609;49.882;8.664;2023-07-29T06:50:46;5.57;;;3.60;;
13085;SDS011;6609;49.882;8.664;2023-07-29T06:53:13;4.37;;;3.07;;
13085;SDS011;6609;49.882;8.664;2023-07-29T06:55:40;6.20;;;3.27;;
13085;SDS011;6609;49.882;8.664;2023-07-29T06:58:07;9.03;;;3.67;;
13085;SDS011;6609;49.882;8.664;2023-07-29T07:00:33;9.27;;;4.00;;
13085;SDS011;6609;49.882;8.664;2023-07-29T07:03:01;6.17;;;3.60;;
13085;SDS011;6609;49.882;8.664;2023-07-29T07:05:28;6.13;;;3.47;;
13085;SDS011;6609;49.882;8.664;2023-07-29T07:07:56;5.67;;;2.73;;
13085;SDS011;6609;49.882;8.664;2023-07-29T07:10:23;6.80;;;3.80;;
13085;SDS011;6609;49.882;8.664;2023-07-29T07:12:50;5.13;;;3.00;;
13085;SDS011;6609;49.882;8.664;2023-07-29T07:15:17;5.63;;;3.37;;
13085;SDS011;6609;49.882;8.664;2023-07-29T07:17:44;7.00;;;3.63;;
13085;SDS011;6609;49.882;8.664;2023-07-29T07:20:11;8.13;;;4.33;;
13085;SDS011;6609;49.882;8.664;2023-07-29T07:22:38;6.67;;;3.70;;
13085;SDS011;6609;49.882;8.664;2023-07-29T07:25:07;4.53;;;3.20;;
13085;SDS011;6609;49.882;8.664;2023-07-29T07:27:34;5.67;;;3.60;;
13085;SDS011;6609;49.882;8.664;2023-07-29T07:30:01;4.17;;;2.87;;
13085;SDS011;6609;49.882;8.664;2023-07-29T07:32:28;4.57;;;2.77;;
13085;SDS011;6609;49.882;8.664;2023-07-29T07:34:55;3.97;;;1.80;;
13085;SDS011;6609;49.882;8.664;2023-07-29T07:37:22;2.53;;;1.90;;
13085;SDS011;6609;49.882;8.664;2023-07-29T07:39:49;4.57;;;2.63;;
13085;SDS011;6609;49.882;8.664;2023-07-29T07:42:18;6.30;;;2.77;;
13085;SDS011;6609;49.882;8.664;2023-07-29T07:44:45;5.30;;;2.50;;
13085;SDS011;6609;49.882;8.664;2023-07-29T07:47:11;5.97;;;2.87;;
13085;SDS011;6609;49.882;8.664;2023-07-29T07:49:40;5.23;;;2.50;;
13085;SDS011;6609;49.882;8.664;2023-07-29T07:52:07;4.23;;;2.03;;
13085;SDS011;6609;49.882;8.664;2023-07-29T07:54:34;3.63;;;1.97;;
13085;SDS011;6609;49.882;8.664;2023-07-29T07:57:01;3.90;;;1.97;;
13085;SDS011;6609;49.882;8.664;2023-07-29T07:59:29;3.70;;;1.83;;
13085;SDS011;6609;49.882;8.664;2023-07-29T08:01:56;4.83;;;2.50;;
13085;SDS011;6609;49.882;8.664;2023-07-29T08:04:23;4.83;;;1.97;;
13085;SDS011;6609;49.882;8.664;2023-07-29T08:06:50;4.10;;;1.87;;
13085;SDS011;6609;49.882;8.664;2023-07-29T08:09:17;5.63;;;2.33;;
13085;SDS011;6609;49.882;8.664;2023-07-29T08:11:44;4.23;;;2.10;;
13085;SDS011;6609;49.882;8.664;2023-07-29T08:14:12;3.53;;;2.03;;
13085;SDS011;6609;49.882;8.664;2023-07-29T08:16:40;5.27;;;2.03;;
13085;SDS011;6609;49.882;8.664;2023-07-29T08:19:07;4.07;;;2.13;;
13085;SDS011;6609;49.882;8.664;2023-07-29T08:21:34;6.60;;;2.77;;
13085;SDS011;6609;49.882;8.664;2023-07-29T08:24:02;3.90;;;2.17;;
13085;SDS011;6609;49.882;8.664;2023-07-29T08:26:29;3.87;;;1.83;;
13085;SDS011;6609;49.882;8.664;2023-07-29T08:28:56;4.10;;;1.93;;
13085;SDS011;6609;49.882;8.664;2023-07-29T08:31:23;5.47;;;2.37;;
13085;SDS011;6609;49.882;8.664;2023-07-29T08:33:52;8.70;;;2.83;;
13085;SDS011;6609;49.882;8.664;2023-07-29T08:36:19;3.77;;;1.80;;
13085;SDS011;6609;49.882;8.664;2023-07-29T08:38:45;3.73;;;2.00;;
13085;SDS011;6609;49.882;8.664;2023-07-29T08:41:13;3.73;;;1.80;;
13085;SDS011;6609;49.882;8.664;2023-07-29T08:43:44;6.50;;;2.83;;
13085;SDS011;6609;49.882;8.664;2023-07-29T08:46:13;3.53;;;2.27;;
13085;SDS011;6609;49.882;8.664;2023-07-29T08:48:42;3.77;;;2.20;;
13085;SDS011;6609;49.882;8.664;2023-07-29T08:51:11;3.03;;;2.03;;
13085;SDS011;6609;49.882;8.664;2023-07-29T08:53:39;3.17;;;2.00;;
13085;SDS011;6609;49.882;8.664;2023-07-29T08:56:06;3.50;;;2.70;;
13085;SDS011;6609;49.882;8.664;2023-07-29T08:58:33;5.27;;;2.70;;
13085;SDS011;6609;49.882;8.664;2023-07-29T09:01:01;3.17;;;2.33;;
13085;SDS011;6609;49.882;8.664;2023-07-29T09:03:28;4.77;;;2.07;;
13085;SDS011;6609;49.882;8.664;2023-07-29T09:05:55;4.17;;;2.73;;
13085;SDS011;6609;49.882;8.664;2023-07-29T09:08:25;3.57;;;2.40;;
13085;SDS011;6609;49.882;8.664;2023-07-29T09:10:53;3.50;;;1.90;;
13085;SDS011;6609;49.882;8.664;2023-07-29T09:13:19;3.30;;;2.07;;
13085;SDS011;6609;49.882;8.664;2023-07-29T09:15:47;2.90;;;1.90;;
13085;SDS011;6609;49.882;8.664;2023-07-29T09:18:15;3.03;;;1.63;;
13085;SDS011;6609;49.882;8.664;2023-07-29T09:20:43;3.97;;;1.80;;
13085;SDS011;6609;49.882;8.664;2023-07-29T09:23:10;2.23;;;1.43;;
13085;SDS011;6609;49.882;8.664;2023-07-29T09:25:38;1.60;;;1.40;;
13085;SDS011;6609;49.882;8.664;2023-07-29T09:28:10;2.37;;;1.50;;
13085;SDS011;6609;49.882;8.664;2023-07-29T09:30:38;3.07;;;1.80;;
13085;SDS011;6609;49.882;8.664;2023-07-29T09:33:05;1.90;;;1.63;;
13085;SDS011;6609;49.882;8.664;2023-07-29T09:35:34;3.10;;;1.37;;
13085;SDS011;6609;49.882;8.664;2023-07-29T09:38:01;3.10;;;1.60;;
13085;SDS011;6609;49.882;8.664;2023-07-29T09:40:27;2.90;;;1.90;;
13085;SDS011;6609;49.882;8.664;2023-07-29T09:43:03;3.90;;;1.77;;
13085;SDS011;6609;49.882;8.664;2023-07-29T09:45:32;4.30;;;1.70;;
13085;SDS011;6609;49.882;8.664;2023-07-29T09:47:59;3.50;;;1.87;;
13085;SDS011;6609;49.882;8.664;2023-07-29T09:50:26;2.93;;;1.43;;
13085;SDS011;6609;49.882;8.664;2023-07-29T09:52:54;3.87;;;2.17;;
13085;SDS011;6609;49.882;8.664;2023-07-29T09:55:23;4.83;;;1.63;;
13085;SDS011;6609;49.882;8.664;2023-07-29T09:57:52;2.83;;;1.50;;
13085;SDS011;6609;49.882;8.664;2023-07-29T10:00:21;2.20;;;1.50;;
13085;SDS011;6609;49.882;8.664;2023-07-29T10:02:48;2.90;;;1.90;;
13085;SDS011;6609;49.882;8.664;2023-07-29T10:05:15;3.93;;;1.87;;
13085;SDS011;6609;49.882;8.664;2023-07-29T10:07:42;2.10;;;1.27;;
13085;SDS011;6609;49.882;8.664;2023-07-29T10:10:10;2.53;;;1.23;;
13085;SDS011;6609;49.882;8.664;2023-07-29T10:12:39;2.00;;;1.27;;
13085;SDS011;6609;49.882;8.664;2023-07-29T10:15:07;2.93;;;1.70;;
13085;SDS011;6609;49.882;8.664;2023-07-29T10:17:36;2.87;;;1.33;;
13085;SDS011;6609;49.882;8.664;2023-07-29T10:20:04;4.00;;;1.87;;
13085;SDS011;6609;49.882;8.664;2023-07-29T10:22:33;3.57;;;1.80;;
13085;SDS011;6609;49.882;8.664;2023-07-29T10:25:03;5.07;;;2.20;;
13085;SDS011;6609;49.882;8.664;2023-07-29T10:27:31;3.80;;;2.00;;
13085;SDS011;6609;49.882;8.664;2023-07-29T10:30:13;5.63;;;2.03;;
13085;SDS011;6609;49.882;8.664;2023-07-29T10:32:43;4.00;;;1.83;;
13085;SDS011;6609;49.882;8.664;2023-07-29T10:35:11;2.50;;;1.60;;
13085;SDS011;6609;49.882;8.664;2023-07-29T10:37:38;4.97;;;2.00;;
13085;SDS011;6609;49.882;8.664;2023-07-29T10:40:07;4.90;;;2.17;;
13085;SDS011;6609;49.882;8.664;2023-07-29T10:42:36;2.70;;;1.40;;
13085;SDS011;6609;49.882;8.664;2023-07-29T10:45:16;5.50;;;2.27;;
13085;SDS011;6609;49.882;8.664;2023-07-29T10:47:45;3.03;;;1.60;;
13085;SDS011;6609;49.882;8.664;2023-07-29T10:50:16;4.90;;;2.10;;
13085;SDS011;6609;49.882;8.664;2023-07-29T10:52:43;5.20;;;2.77;;
13085;SDS011;6609;49.882;8.664;2023-07-29T10:55:28;5.73;;;1.87;;
13085;SDS011;6609;49.882;8.664;2023-07-29T10:58:04;4.10;;;2.40;;
13085;SDS011;6609;49.882;8.664;2023-07-29T11:00:31;4.87;;;2.10;;
13085;SDS011;6609;49.882;8.664;2023-07-29T11:03:00;3.17;;;1.77;;
13085;SDS011;6609;49.882;8.664;2023-07-29T11:05:41;3.30;;;2.07;;
13085;SDS011;6609;49.882;8.664;2023-07-29T11:08:16;3.03;;;2.13;;
13085;SDS011;6609;49.882;8.664;2023-07-29T11:11:01;4.83;;;2.43;;
13085;SDS011;6609;49.882;8.664;2023-07-29T11:13:32;6.63;;;2.97;;
13085;SDS011;6609;49.882;8.664;2023-07-29T11:16:00;4.57;;;2.47;;
13085;SDS011;6609;49.882;8.664;2023-07-29T11:18:29;4.67;;;2.47;;
13085;SDS011;6609;49.882;8.664;2023-07-29T11:20:58;5.07;;;2.20;;
13085;SDS011;6609;49.882;8.664;2023-07-29T11:23:29;3.77;;;2.10;;
13085;SDS011;6609;49.882;8.664;2023-07-29T11:25:56;3.70;;;2.23;;
13085;SDS011;6609;49.882;8.664;2023-07-29T11:28:23;4.60;;;2.80;;
13085;SDS011;6609;49.882;8.664;2023-07-29T11:30:50;3.50;;;1.77;;
13085;SDS011;6609;49.882;8.664;2023-07-29T11:33:17;4.23;;;2.03;;
13085;SDS011;6609;49.882;8.664;2023-07-29T11:35:46;4.00;;;2.30;;
13085;SDS011;6609;49.882;8.664;2023-07-29T11:38:14;4.30;;;2.33;;
13085;SDS011;6609;49.882;8.664;2023-07-29T11:40:42;4.60;;;2.53;;
13085;SDS011;6609;49.882;8.664;2023-07-29T11:43:16;5.10;;;2.30;;
13085;SDS011;6609;49.882;8.664;2023-07-29T11:45:44;4.90;;;2.57;;
13085;SDS011;6609;49.882;8.664;2023-07-29T11:48:11;4.87;;;2.60;;
13085;SDS011;6609;49.882;8.664;2023-07-29T11:50:38;3.43;;;2.00;;
13085;SDS011;6609;49.882;8.664;2023-07-29T11:53:06;4.43;;;2.13;;
13085;SDS011;6609;49.882;8.664;2023-07-29T11:55:33;5.23;;;2.43;;
13085;SDS011;6609;49.882;8.664;2023-07-29T11:58:00;6.03;;;2.80;;
13085;SDS011;6609;49.882;8.664;2023-07-29T12:00:28;3.37;;;1.77;;
13085;SDS011;6609;49.882;8.664;2023-07-29T12:02:55;2.47;;;1.80;;
13085;SDS011;6609;49.882;8.664;2023-07-29T12:05:22;2.83;;;1.77;;
13085;SDS011;6609;49.882;8.664;2023-07-29T12:07:51;2.63;;;1.97;;
13085;SDS011;6609;49.882;8.664;2023-07-29T12:10:19;3.77;;;2.20;;
13085;SDS011;6609;49.882;8.664;2023-07-29T12:12:47;3.33;;;2.30;;
13085;SDS011;6609;49.882;8.664;2023-07-29T12:15:22;4.43;;;2.27;;
13085;SDS011;6609;49.882;8.664;2023-07-29T12:17:52;2.90;;;2.07;;
13085;SDS011;6609;49.882;8.664;2023-07-29T12:20:21;3.27;;;2.00;;
13085;SDS011;6609;49.882;8.664;2023-07-29T12:22:51;3.63;;;2.10;;
13085;SDS011;6609;49.882;8.664;2023-07-29T12:25:20;7.57;;;2.47;;
13085;SDS011;6609;49.882;8.664;2023-07-29T12:27:46;4.27;;;2.37;;
13085;SDS011;6609;49.882;8.664;2023-07-29T12:30:14;3.50;;;2.00;;
13085;SDS011;6609;49.882;8.664;2023-07-29T12:32:45;3.40;;;2.20;;
13085;SDS011;6609;49.882;8.664;2023-07-29T12:35:12;2.77;;;1.90;;
13085;SDS011;6609;49.882;8.664;2023-07-29T12:37:40;5.00;;;2.40;;
13085;SDS011;6609;49.882;8.664;2023-07-29T12:40:08;4.33;;;2.33;;
13085;SDS011;6609;49.882;8.664;2023-07-29T12:42:37;4.10;;;2.50;;
13085;SDS011;6609;49.882;8.664;2023-07-29T12:45:04;4.57;;;2.13;;
13085;SDS011;6609;49.882;8.664;2023-07-29T12:47:31;2.50;;;1.70;;
13085;SDS011;6609;49.882;8.664;2023-07-29T12:49:58;7.47;;;1.97;;
13085;SDS011;6609;49.882;8.664;2023-07-29T12:52:25;2.60;;;1.60;;
13085;SDS011;6609;49.882;8.664;2023-07-29T12:54:52;4.37;;;2.17;;
13085;SDS011;6609;49.882;8.664;2023-07-29T12:57:19;4.13;;;1.70;;
13085;SDS011;6609;49.882;8.664;2023-07-29T12:59:48;2.87;;;2.00;;
13085;SDS011;6609;49.882;8.664;2023-07-29T13:02:14;3.87;;;1.93;;
13085;SDS011;6609;49.882;8.664;2023-07-29T13:04:41;2.73;;;1.73;;
13085;SDS011;6609;49.882;8.664;2023-07-29T13:07:09;2.30;;;1.60;;
13085;SDS011;6609;49.882;8.664;2023-07-29T13:09:36;2.43;;;1.50;;
13085;SDS011;6609;49.882;8.664;2023-07-29T13:12:03;2.63;;;1.77;;
13085;SDS011;6609;49.882;8.664;2023-07-29T13:14:30;2.80;;;1.90;;
13085;SDS011;6609;49.882;8.664;2023-07-29T13:16:58;2.97;;;1.97;;
13085;SDS011;6609;49.882;8.664;2023-07-29T13:19:25;3.67;;;1.90;;
13085;SDS011;6609;49.882;8.664;2023-07-29T13:21:52;4.23;;;2.07;;
13085;SDS011;6609;49.882;8.664;2023-07-29T13:24:19;2.07;;;1.50;;
13085;SDS011;6609;49.882;8.664;2023-07-29T13:26:46;5.07;;;2.47;;
13085;SDS011;6609;49.882;8.664;2023-07-29T13:29:13;3.13;;;1.60;;
13085;SDS011;6609;49.882;8.664;2023-07-29T13:31:40;5.23;;;2.10;;
13085;SDS011;6609;49.882;8.664;2023-07-29T13:34:09;2.43;;;1.50;;
13085;SDS011;6609;49.882;8.664;2023-07-29T13:36:35;5.43;;;2.50;;
13085;SDS011;6609;49.882;8.664;2023-07-29T13:39:03;4.00;;;2.30;;
13085;SDS011;6609;49.882;8.664;2023-07-29T13:41:30;3.17;;;1.80;;
13085;SDS011;6609;49.882;8.664;2023-07-29T13:43:57;4.70;;;2.23;;
13085;SDS011;6609;49.882;8.664;2023-07-29T13:46:24;3.00;;;1.90;;
13085;SDS011;6609;49.882;8.664;2023-07-29T13:48:51;3.90;;;2.10;;
13085;SDS011;6609;49.882;8.664;2023-07-29T13:51:19;3.10;;;2.07;;
13085;SDS011;6609;49.882;8.664;2023-07-29T13:53:46;4.10;;;2.00;;
13085;SDS011;6609;49.882;8.664;2023-07-29T13:56:13;3.83;;;2.23;;
13085;SDS011;6609;49.882;8.664;2023-07-29T13:58:40;4.60;;;2.50;;
13085;SDS011;6609;49.882;8.664;2023-07-29T14:01:07;4.20;;;2.10;;
13085;SDS011;6609;49.882;8.664;2023-07-29T14:03:34;3.40;;;2.27;;
13085;SDS011;6609;49.882;8.664;2023-07-29T14:06:01;5.57;;;2.17;;
13085;SDS011;6609;49.882;8.664;2023-07-29T14:08:29;4.97;;;2.50;;
13085;SDS011;6609;49.882;8.664;2023-07-29T14:10:56;5.00;;;2.43;;
13085;SDS011;6609;49.882;8.664;2023-07-29T14:13:23;5.77;;;2.50;;
13085;SDS011;6609;49.882;8.664;2023-07-29T14:15:51;3.10;;;2.00;;
13085;SDS011;6609;49.882;8.664;2023-07-29T14:18:18;2.73;;;2.00;;
13085;SDS011;6609;49.882;8.664;2023-07-29T14:20:45;2.77;;;1.80;;
13085;SDS011;6609;49.882;8.664;2023-07-29T14:23:12;2.87;;;1.70;;
13085;SDS011;6609;49.882;8.664;2023-07-29T14:25:40;3.40;;;2.07;;
13085;SDS011;6609;49.882;8.664;2023-07-29T14:28:07;3.13;;;1.87;;
13085;SDS011;6609;49.882;8.664;2023-07-29T14:30:34;2.73;;;1.87;;
13085;SDS011;6609;49.882;8.664;2023-07-29T14:33:02;3.30;;;1.93;;
13085;SDS011;6609;49.882;8.664;2023-07-29T14:35:29;2.77;;;1.60;;
13085;SDS011;6609;49.882;8.664;2023-07-29T14:37:56;2.57;;;1.57;;
13085;SDS011;6609;49.882;8.664;2023-07-29T14:40:24;2.20;;;1.60;;
13085;SDS011;6609;49.882;8.664;2023-07-29T14:42:53;7.47;;;1.60;;
13085;SDS011;6609;49.882;8.664;2023-07-29T14:45:20;3.10;;;1.90;;
13085;SDS011;6609;49.882;8.664;2023-07-29T14:47:46;2.80;;;1.93;;
13085;SDS011;6609;49.882;8.664;2023-07-29T14:50:13;2.53;;;1.83;;
13085;SDS011;6609;49.882;8.664;2023-07-29T14:52:40;2.60;;;1.53;;
13085;SDS011;6609;49.882;8.664;2023-07-29T14:55:07;2.77;;;1.60;;
13085;SDS011;6609;49.882;8.664;2023-07-29T14:57:34;2.83;;;1.70;;
13085;SDS011;6609;49.882;8.664;2023-07-29T15:00:02;2.60;;;1.60;;
13085;SDS011;6609;49.882;8.664;2023-07-29T15:02:29;3.40;;;1.70;;
13085;SDS011;6609;49.882;8.664;2023-07-29T15:04:56;2.73;;;1.83;;